Station: Portable Rfsnsw58  

  Atmospheric Gas Attenuation - ITU Rec 676-11   ----------------- dB/100km -----------------
Date Time Temp RH % AH g/m3 Dew Point Wind Direction Speed kph Gust kph Barometer mB Rainfall Since 9am 24GHz 47GHz 76GHz 122GHz 134GHz 241GHz
08/05 12:20 5.9 97 7 5.4 28 32 1013.1 0 16.5 25.5 37.1 97.1 86.2 294.7
08/05 12:10 5.7 97 6.91 5.3 26 30 1013.1 0 16.3 25.4 36.8 96.3 85.2 291.1
08/05 12:00 5.6 97 6.86 5.2 26 30 1013.1 0 16.2 25.4 36.6 95.9 84.6 289.0
08/05 11:50 5.5 97 6.82 5 26 30 1013.1 0 16.1 25.3 36.5 95.5 84.2 287.5
08/05 11:40 5.5 97 6.82 5.1 24 28 1013.1 0 16.1 25.3 36.5 95.5 84.2 287.5
08/05 11:30 5.4 97 6.77 5 22 28 1013.1 0 16.0 25.3 36.3 95.1 83.6 285.4
08/05 11:20 5.3 97 6.73 4.9 22 22 1013.1 0 15.9 25.2 36.2 94.8 83.1 283.8
08/05 11:10 5.1 98 6.71 4.8 19 22 1013.1 0 15.9 25.3 36.2 94.8 83.1 283.6
08/05 11:00 5 98 6.66 4.7 22 26 1013.1 0 15.8 25.2 36.0 94.4 82.5 281.5
08/05 10:50 5.1 97 6.64 4.7 22 26 1013.1 0 15.8 25.2 35.9 94.0 82.1 280.2
08/05 10:40 5.1 98 6.71 4.8 24 24 1013.1 0 15.9 25.3 36.2 94.8 83.1 283.6
08/05 10:30 4.8 98 6.58 4.5 22 26 1013.1 0 15.6 25.1 35.8 93.7 81.6 278.4
08/05 10:20 4.7 99 6.6 4.5 20 22 1013.1 0 15.7 25.2 35.9 94.0 82.0 279.7
08/05 10:10 4.6 98 6.49 4.3 22 28 1013.1 0 15.5 25.0 35.5 92.9 80.6 274.7
08/05 10:00 4.4 98 6.4 4.1 20 22 1013.1 0 15.3 24.9 35.2 92.2 79.5 271.1
08/05 09:50 4.4 99 6.47 4.2 19 20 1013.1 0 15.4 25.1 35.5 93.0 80.5 274.5
08/05 09:40 4.2 99 6.38 4 19 20 1013.1 0 15.2 25.0 35.2 92.2 79.5 270.8
08/05 09:30 4 98 6.24 3.7 17 19 1013.1 0 14.9 24.8 34.7 90.9 77.7 264.7
08/05 09:20 3.9 98 6.19 3.6 15 17 1013.1 0 14.8 24.7 34.6 90.4 77.1 262.7
08/05 09:10 3.8 97 6.09 3.4 15 20 1013.1 0 14.6 24.6 34.2 89.4 75.9 258.2
08/05 09:00 3.7 97 6.05 3.3 17 19 1013.1 0 14.5 24.6 34.1 89.1 75.4 256.6
08/05 08:50 3.8 97 6.09 3.3 19 22 1013.1 0 14.6 24.6 34.2 89.4 75.9 258.2
08/05 08:40 3.7 97 6.05 3.2 19 20 1013.1 0 14.5 24.6 34.1 89.1 75.4 256.6
08/05 08:30 3.6 96 5.95 3 17 22 1013.1 0 14.3 24.4 33.7 88.1 74.1 252.1
08/05 08:20 3.6 95 5.89 2.9 19 20 1013.1 0 14.2 24.3 33.5 87.4 73.3 249.2
08/05 08:10 3.6 94 5.82 2.8 20 22 1013.1 0 14.0 24.2 33.2 86.6 72.4 245.9
08/05 08:00 3.6 94 5.82 2.8 22 24 1013.1 0 14.0 24.2 33.2 86.6 72.4 245.9
08/05 07:50 3.6 94 5.82 2.8 20 24 1013.1 0 14.0 24.2 33.2 86.6 72.4 245.9
08/05 07:40 3.6 94 5.82 2.8 20 22 1013.1 0 14.0 24.2 33.2 86.6 72.4 245.9
08/05 07:30 3.7 93 5.8 2.7 19 20 1013.1 0 14.0 24.1 33.0 86.3 72.0 244.6
08/05 07:20 3.7 93 5.8 2.7 24 28 1013.1 0 14.0 24.1 33.0 86.3 72.0 244.6
08/05 07:10 3.5 93 5.72 2.5 22 26 1013.1 0 13.8 24.1 32.8 85.7 71.1 241.4
08/05 07:00 3.5 94 5.79 2.6 20 26 1013.1 0 14.0 24.2 33.1 86.4 72.1 244.8
08/05 06:50 3.6 92 5.7 2.5 28 35 1013.1 0 13.8 24.0 32.7 85.3 70.7 240.2
08/05 06:40 3.5 93 5.72 2.5 22 26 1013.1 0 13.8 24.1 32.8 85.7 71.1 241.4
08/05 06:30 3.5 94 5.79 2.6 20 26 1013.1 0 14.0 24.2 33.1 86.4 72.1 244.8
08/05 06:20 3.5 94 5.79 2.6 24 28 1013.1 0 14.0 24.2 33.1 86.4 72.1 244.8
08/05 06:10 3.5 94 5.79 2.6 22 24 1013.1 0 14.0 24.2 33.1 86.4 72.1 244.8
08/05 06:00 3.6 93 5.76 2.6 20 22 1013.1 0 13.9 24.1 32.9 86.0 71.6 243.0
08/05 05:50 3.6 92 5.7 2.4 22 24 1013.1 0 13.8 24.0 32.7 85.3 70.7 240.2
08/05 05:40 3.6 92 5.7 2.4 26 32 1013.1 0 13.8 24.0 32.7 85.3 70.7 240.2
08/05 05:30 3.6 91 5.64 2.3 26 32 1013.1 0 13.7 23.9 32.4 84.7 69.9 237.3
08/05 05:20 3.6 90 5.58 2.2 20 24 1013.1 0 13.5 23.8 32.2 84.0 69.1 234.5
08/05 05:10 3.5 90 5.54 2.1 22 26 1013.1 0 13.4 23.8 32.1 83.7 68.7 232.9
08/05 05:00 3.5 90 5.54 2.1 20 22 1013.1 0 13.4 23.8 32.1 83.7 68.7 232.9
08/05 04:50 3.4 90 5.5 2 22 28 1013.1 0 13.4 23.7 31.9 83.4 68.2 231.3
08/05 04:40 3.5 90 5.54 2 26 30 1013.1 0 13.4 23.8 32.1 83.7 68.7 232.9
08/05 04:30 3.5 90 5.54 2 26 33 1013.1 0 13.4 23.8 32.1 83.7 68.7 232.9
08/05 04:20 3.4 90 5.5 1.9 26 28 1013.1 0 13.4 23.7 31.9 83.4 68.2 231.3
08/05 04:10 3.4 89 5.44 1.8 24 30 1013.1 0 13.2 23.6 31.7 82.7 67.4 228.5
08/05 04:00 3.3 89 5.4 1.7 24 30 1013.1 0 13.1 23.6 31.6 82.4 67.0 226.9
08/05 03:50 3.2 89 5.37 1.6 20 22 1013.1 0 13.1 23.6 31.5 82.2 66.6 225.8
08/05 03:40 3.2 89 5.37 1.6 19 24 1013.1 0 13.1 23.6 31.5 82.2 66.6 225.8
08/05 03:30 3.3 88 5.34 1.5 20 22 1013.1 0 13.0 23.5 31.3 81.7 66.2 224.1
08/05 03:20 3.4 87 5.32 1.5 19 22 1013.1 0 13.0 23.4 31.2 81.4 65.8 222.8
08/05 03:10 3.4 87 5.32 1.4 22 26 1013.1 0 13.0 23.4 31.2 81.4 65.8 222.8
08/05 03:00 3.6 85 5.27 1.4 20 28 1013.1 0 12.9 23.3 30.9 80.7 65.0 219.9
08/05 02:50 3.7 84 5.24 1.2 20 26 1013.1 0 12.8 23.2 30.8 80.2 64.5 218.3
08/05 02:40 3.7 83 5.18 1.1 19 24 1013.1 0 12.7 23.1 30.5 79.6 63.7 215.5
08/05 02:30 3.7 82 5.11 1 17 24 1013.1 0 12.5 23.0 30.2 78.8 62.8 212.2
08/05 02:20 3.7 82 5.11 1 19 24 1013.1 0 12.5 23.0 30.2 78.8 62.8 212.2
08/05 02:10 3.7 81 5.05 0.8 28 32 1013.1 0 12.4 22.9 30.0 78.2 62.0 209.5
08/05 02:00 3.7 81 5.05 0.8 24 33 1013.1 0 12.4 22.9 30.0 78.2 62.0 209.5
08/05 01:50 3.6 81 5.02 0.7 32 37 1013.1 0 12.3 22.9 29.9 78.0 61.7 208.3
08/05 01:40 3.6 81 5.02 0.6 26 30 1013.1 0 12.3 22.9 29.9 78.0 61.7 208.3
08/05 01:30 3.6 81 5.02 0.7 22 28 1013.1 0 12.3 22.9 29.9 78.0 61.7 208.3
08/05 01:20 3.7 81 5.05 0.7 22 30 1013.1 0 12.4 22.9 30.0 78.2 62.0 209.5
08/05 01:10 3.6 81 5.02 0.6 24 33 1013.1 0 12.3 22.9 29.9 78.0 61.7 208.3
08/05 01:00 3.6 81 5.02 0.6 24 30 1013.1 0 12.3 22.9 29.9 78.0 61.7 208.3
08/05 00:50 3.6 81 5.02 0.7 28 30 1013.1 0 12.3 22.9 29.9 78.0 61.7 208.3
08/05 00:40 3.5 81 4.98 0.6 24 28 1013.1 0 12.2 22.9 29.8 77.7 61.2 206.8
08/05 00:30 3.4 82 5.01 0.7 26 30 1013.1 0 12.3 22.9 30.0 78.1 61.7 208.4
08/05 00:10 3.3 82 4.98 0.6 22 28 1013.1 0 12.2 22.9 29.9 77.9 61.4 207.3
08/05 00:00 3.3 82 4.98 0.6 22 28 1013.1 0 12.2 22.9 29.9 77.9 61.4 207.3
07/05 23:50 3.2 82 4.95 0.5 24 26 1013.1 0 12.2 22.9 29.8 77.6 61.1 206.2
07/05 23:40 3.2 82 4.95 0.4 24 26 1013.1 0 12.2 22.9 29.8 77.6 61.1 206.2
07/05 23:30 3.1 82 4.91 0.4 22 28 1013.1 0 12.1 22.8 29.7 77.3 60.6 204.6
07/05 23:20 3.1 82 4.91 0.4 22 24 1013.1 0 12.1 22.8 29.7 77.3 60.6 204.6
07/05 23:10 3 82 4.88 0.3 22 26 1013.1 0 12.0 22.8 29.6 77.1 60.3 203.4
07/05 23:00 3 82 4.88 0.2 22 24 1013.1 0 12.0 22.8 29.6 77.1 60.3 203.4
07/05 22:50 3 82 4.88 0.2 22 26 1013.1 0 12.0 22.8 29.6 77.1 60.3 203.4
07/05 22:40 3 81 4.82 0.1 22 24 1013.1 0 11.9 22.7 29.4 76.5 59.5 200.7
07/05 22:30 3 81 4.82 0 22 26 1013.1 0 11.9 22.7 29.4 76.5 59.5 200.7
07/05 22:20 3 80 4.76 -0.1 22 24 1013.1 0 11.8 22.6 29.1 75.8 58.7 197.9
07/05 22:10 2.9 80 4.73 -0.2 26 30 1013.1 0 11.7 22.6 29.0 75.6 58.4 196.8
07/05 22:00 2.6 80 4.63 -0.5 26 35 1013.1 0 11.5 22.5 28.7 74.8 57.3 192.9
07/05 21:50 2.6 80 4.63 -0.5 26 30 1013.1 0 11.5 22.5 28.7 74.8 57.3 192.9
07/05 21:40 2.6 79 4.58 -0.7 24 30 1013.1 0 11.4 22.4 28.5 74.3 56.7 190.6
07/05 21:30 2.6 79 4.58 -0.7 22 24 1013.1 0 11.4 22.4 28.5 74.3 56.7 190.6
07/05 21:20 2.6 79 4.58 -0.7 24 26 1013.1 0 11.4 22.4 28.5 74.3 56.7 190.6
07/05 21:10 2.8 78 4.58 -0.7 24 30 1013.1 0 11.4 22.4 28.5 74.1 56.5 190.2
07/05 21:00 2.8 78 4.58 -0.7 28 32 1013.1 0 11.4 22.4 28.5 74.1 56.5 190.2
07/05 20:50 2.8 77 4.52 -0.8 30 39 1013.1 0 11.3 22.3 28.2 73.5 55.7 187.4
07/05 20:40 2.9 76 4.49 -0.9 30 33 1013.1 0 11.2 22.2 28.1 73.1 55.3 185.8
07/05 20:30 3 75 4.46 -0.9 28 33 1013.1 0 11.1 22.2 27.9 72.7 54.8 184.2
07/05 20:20 3 76 4.52 -0.8 24 30 1013.1 0 11.3 22.3 28.2 73.3 55.6 186.9
07/05 20:10 3.2 75 4.52 -0.8 20 26 1013.1 0 11.3 22.2 28.1 73.1 55.5 186.5
07/05 20:00 3.3 74 4.49 -0.9 24 30 1013.1 0 11.2 22.1 28.0 72.7 55.0 184.9
07/05 19:50 3.4 73 4.46 -0.9 24 26 1013.1 0 11.1 22.1 27.8 72.3 54.5 183.3
07/05 19:40 3.4 72 4.4 -1.2 24 26 1013.1 0 11.0 22.0 27.6 71.7 53.8 180.6

Last Refresh: 08-May-2026 12:10:11

Bureau of Meteorology